Imotski, Croatia

6:47 AM CEST on July 30, 2014 (GMT +0200)
Kostanje-Poljica (ISPLITSK5) Elev 728 ft | 43.44 °N, 16.83 °E | Change Station

Current weather conditions updated 6 seconds ago

Clear
Clear
79.2 °F
Feels Like 81 °F
N
19.6
Wind Variable Wind from ESE
Gusts 19.6 mph

Today is forecast to be Cooler than yesterday. Thunderstorms, some may contain heavy rain.

Today
High -- | Low -- °F
--% Chance of Precip.
Yesterday
High -- | Low -- °F
Precip. -- in
5:38 AM 8:16 PM
Waxing Crescent, 9% visible
Pressure 29.65 in
Visibility -9999.0 miles
Clouds
Heat Index 81 °F
Dew Point 62 °F
Humidity 55%
Rainfall 0.00 in
Snow Depth Not available.
UV Not available.
Pollen Not available.
Air Quality Not available.
Flu Activity Not available.
METAR LDSP 300430Z 12013KT 080V170 CAVOK 26/19 Q1004 NOSIG

More Conditions Fewer Conditions

Pressure 29.65 in
Visibility -9999.0 miles
Clouds
Heat Index 81 °F
Dew Point 62 °F
Humidity 55%
Rainfall 0.00 in
Snow Depth Not available.
UV Not available.
Pollen Not available.
Air Quality Not available.
Flu Activity Not available.
METAR LDSP 300430Z 12013KT 080V170 CAVOK 26/19 Q1004 NOSIG

More Conditions Fewer Conditions

10-Day Weather Forecast

Almanac

Astronomy

Jul. 30, 2014 Rise Set
Actual Time 5:38 AM CEST 8:16 PM CEST
Civil Twilight 5:05 AM CEST 8:48 PM CEST
Nautical Twilight 4:24 AM CEST 9:29 PM CEST
Astronomical Twilight 3:37 AM CEST 10:16 PM CEST
Moon 9:00 AM CEST 9:41 PM CEST
Length of Visible Light 15h 43m
Length of Day
14h 37m
Tomorrow will be 2m 14s shorter.
Waxing Crescent, 9% of the Moon is Illuminated
Today
Waxing Crescent
Aug 3
First Quarter
Aug 10
Full
Aug 17
Last Quarter
Aug 25
New

Yesterday's Extremes

Country Highs Country Lows

Community

WunderPhotos

Upload Photos

1,739,000 photos uploaded!

WunderBlogs® & News

By Dr. Jeff Masters
Director of Meteorology, Weather Underground
By Kari Strenfel
Meteorologist, Weather Underground
By Christopher C. Burt
Weather Historian, Weather Underground
July 29, 2014
July 29, 2014
July 29, 2014

Nearby

Snow Depth

Not available.

Earthquake Activity

City Distance Mag. Time & Date
No recent earthquake activity has been reported nearby.
Minimum magnitude displayed is 2.5.

Coastal Water Temperatures

Place Temperature
No Stations Reporting

Nearby Weather Stations

Station Location Temp. Heat Index Dew Point Humidity Wind Precip. Elev Updated Type
Kostanje-Poljica, Kostanje 79.2 °F 81 °F 62 °F 55% ESE  at  19.6 mph 0.00 in / hr 728 ft 6:46 AM CEST Rapid Fire

Show More Stations Show Fewer Stations